Time;durP1;ratioP1;P1;durP2;ratioP2;P2;SDS_P1;SDS_P2;PMS_P1;PMS_P2;Temp;Humidity;BMP_temperature;BMP_pressure;BME280_temperature;BME280_humidity;BME280_pressure;Samples;Min_cycle;Max_cycle;Signal;HPM_P1;HPM_P2
2023/08/08 00:00:25;;;;;;;1.35;0.70;;;;;;;;;;4999461;28;20043;-46
2023/08/08 00:02:50;;;;;;;0.43;0.43;;;;;;;;;;4998533;28;20132;-48
2023/08/08 00:05:16;;;;;;;0.60;0.60;;;;;;;;;;4995801;28;20038;-46
2023/08/08 00:07:41;;;;;;;1.67;0.68;;;;;;;;;;4992641;28;20034;-47
2023/08/08 00:10:07;;;;;;;0.80;0.60;;;;;;;;;;5000364;28;20112;-47
2023/08/08 00:12:32;;;;;;;3.17;0.60;;;;;;;;;;4999054;28;20058;-45
2023/08/08 00:14:58;;;;;;;0.60;0.60;;;;;;;;;;4997500;28;20528;-44
2023/08/08 00:17:23;;;;;;;1.67;0.80;;;;;;;;;;4998916;28;20042;-45
2023/08/08 00:19:49;;;;;;;1.08;0.70;;;;;;;;;;4999270;28;20046;-46
2023/08/08 00:22:14;;;;;;;2.83;0.52;;;;;;;;;;4998164;28;20049;-47
2023/08/08 00:24:40;;;;;;;0.93;0.80;;;;;;;;;;4997298;28;20026;-44
2023/08/08 00:27:05;;;;;;;0.60;0.60;;;;;;;;;;4988630;28;20523;-45
2023/08/08 00:29:30;;;;;;;0.82;0.50;;;;;;;;;;4997371;28;20041;-47
2023/08/08 00:31:56;;;;;;;1.17;0.50;;;;;;;;;;4998905;28;20087;-45
2023/08/08 00:34:21;;;;;;;0.88;0.82;;;;;;;;;;4998496;28;20030;-44
2023/08/08 00:36:47;;;;;;;1.20;0.90;;;;;;;;;;4992521;28;20108;-45
2023/08/08 00:39:12;;;;;;;0.82;0.80;;;;;;;;;;4990579;28;20038;-45
2023/08/08 00:41:37;;;;;;;2.50;0.80;;;;;;;;;;4999319;28;20030;-48
2023/08/08 00:44:03;;;;;;;0.95;0.52;;;;;;;;;;4998738;28;20058;-46
2023/08/08 00:46:28;;;;;;;5.00;0.60;;;;;;;;;;4997261;28;20444;-44
2023/08/08 00:48:54;;;;;;;0.65;0.65;;;;;;;;;;4980189;28;20057;-46
2023/08/08 00:51:21;;;;;;;0.70;0.70;;;;;;;;;;4982953;28;20033;-46
2023/08/08 00:53:47;;;;;;;0.70;0.50;;;;;;;;;;4996561;28;20050;-44
2023/08/08 00:56:14;;;;;;;1.05;0.85;;;;;;;;;;4996406;28;20030;-49
2023/08/08 00:58:40;;;;;;;0.73;0.73;;;;;;;;;;4996527;28;20046;-48
2023/08/08 01:01:05;;;;;;;1.45;0.70;;;;;;;;;;4996253;28;20025;-46
2023/08/08 01:03:31;;;;;;;1.88;0.60;;;;;;;;;;4993778;28;20042;-47
2023/08/08 01:06:08;;;;;;;0.45;0.45;;;;;;;;;;4987297;28;20058;-45
2023/08/08 01:08:42;;;;;;;5.45;0.70;;;;;;;;;;4989836;28;20516;-47
2023/08/08 01:11:08;;;;;;;0.60;0.60;;;;;;;;;;4996326;28;20124;-45
2023/08/08 01:13:35;;;;;;;1.50;0.70;;;;;;;;;;4995565;28;20042;-48
2023/08/08 01:16:04;;;;;;;2.65;0.60;;;;;;;;;;4981312;28;20027;-46
2023/08/08 01:18:31;;;;;;;0.70;0.70;;;;;;;;;;4980460;28;20508;-45
2023/08/08 01:20:58;;;;;;;0.82;0.82;;;;;;;;;;4992890;28;20030;-45
2023/08/08 01:23:42;;;;;;;3.45;0.82;;;;;;;;;;4997900;28;20114;-47
2023/08/08 01:26:08;;;;;;;0.50;0.50;;;;;;;;;;4996194;28;20030;-45
2023/08/08 01:28:35;;;;;;;1.48;0.70;;;;;;;;;;4996135;28;20045;-44
2023/08/08 01:31:00;;;;;;;0.55;0.55;;;;;;;;;;5002216;28;20026;-47
2023/08/08 01:33:25;;;;;;;1.40;0.60;;;;;;;;;;4995564;28;20049;-44
2023/08/08 01:35:58;;;;;;;0.63;0.60;;;;;;;;;;4997509;28;20053;-45
2023/08/08 01:38:30;;;;;;;0.70;0.70;;;;;;;;;;4997343;28;20052;-49
2023/08/08 01:40:57;;;;;;;0.70;0.70;;;;;;;;;;4995508;28;20069;-46
2023/08/08 01:43:24;;;;;;;1.83;0.60;;;;;;;;;;4997989;28;20058;-44
2023/08/08 01:45:50;;;;;;;0.57;0.57;;;;;;;;;;4998348;28;20030;-45
2023/08/08 01:48:16;;;;;;;0.98;0.60;;;;;;;;;;4993185;28;20093;-45
2023/08/08 01:50:41;;;;;;;0.70;0.70;;;;;;;;;;4985748;28;20022;-45
2023/08/08 01:53:06;;;;;;;0.70;0.70;;;;;;;;;;4997207;28;20080;-47
2023/08/08 01:55:32;;;;;;;1.83;0.85;;;;;;;;;;4995078;28;20146;-46
2023/08/08 01:57:58;;;;;;;3.20;0.77;;;;;;;;;;4993315;28;20043;-44
2023/08/08 02:00:23;;;;;;;1.25;0.80;;;;;;;;;;4990345;28;20113;-43
2023/08/08 02:02:48;;;;;;;2.10;0.88;;;;;;;;;;4997455;28;20035;-45
2023/08/08 02:05:14;;;;;;;0.60;0.60;;;;;;;;;;4995603;28;20057;-45
2023/08/08 02:07:39;;;;;;;2.58;1.08;;;;;;;;;;4995011;28;20058;-45
2023/08/08 02:10:05;;;;;;;1.02;0.70;;;;;;;;;;4997239;28;20038;-45
2023/08/08 02:12:31;;;;;;;0.80;0.80;;;;;;;;;;4996512;28;20035;-45
2023/08/08 02:14:57;;;;;;;1.00;1.00;;;;;;;;;;4996253;28;20089;-44
2023/08/08 02:17:22;;;;;;;0.70;0.70;;;;;;;;;;4993669;28;20096;-44
2023/08/08 02:19:48;;;;;;;0.82;0.75;;;;;;;;;;4990240;28;20152;-48
2023/08/08 02:22:13;;;;;;;2.03;0.80;;;;;;;;;;4987436;28;20280;-45
2023/08/08 02:24:39;;;;;;;0.70;0.57;;;;;;;;;;4994764;28;20062;-45
2023/08/08 02:27:04;;;;;;;0.80;0.80;;;;;;;;;;4976997;28;20117;-43
2023/08/08 02:29:30;;;;;;;0.90;0.80;;;;;;;;;;4996057;28;20033;-45
2023/08/08 02:31:55;;;;;;;4.00;0.82;;;;;;;;;;4992124;28;20122;-49
2023/08/08 02:34:21;;;;;;;1.42;0.90;;;;;;;;;;4982391;28;20042;-44
2023/08/08 02:36:47;;;;;;;2.10;0.63;;;;;;;;;;4996414;28;20046;-45
2023/08/08 02:39:12;;;;;;;2.45;0.85;;;;;;;;;;4994906;28;20062;-45
2023/08/08 02:41:39;;;;;;;1.23;1.10;;;;;;;;;;4996065;28;20043;-44
2023/08/08 02:44:04;;;;;;;1.52;0.70;;;;;;;;;;4994401;28;20054;-45
2023/08/08 02:46:29;;;;;;;3.72;0.82;;;;;;;;;;4994682;28;20026;-45
2023/08/08 02:48:55;;;;;;;0.60;0.60;;;;;;;;;;4995787;28;20042;-46
2023/08/08 02:51:20;;;;;;;4.20;0.70;;;;;;;;;;4995544;28;21090;-46
2023/08/08 02:53:46;;;;;;;2.47;0.70;;;;;;;;;;4993574;28;20065;-47
2023/08/08 02:56:11;;;;;;;0.60;0.60;;;;;;;;;;4988320;28;20045;-45
2023/08/08 02:58:36;;;;;;;0.90;0.68;;;;;;;;;;4989617;28;20042;-49
2023/08/08 03:01:02;;;;;;;3.72;0.60;;;;;;;;;;4995554;28;20485;-44
2023/08/08 03:03:28;;;;;;;1.65;1.00;;;;;;;;;;4994479;28;20050;-46
2023/08/08 03:05:53;;;;;;;0.98;0.88;;;;;;;;;;4997345;28;20383;-44
2023/08/08 03:08:19;;;;;;;1.73;0.90;;;;;;;;;;4993772;28;20030;-45
2023/08/08 03:10:44;;;;;;;1.23;0.73;;;;;;;;;;4996270;28;20069;-44
2023/08/08 03:13:10;;;;;;;0.90;0.80;;;;;;;;;;4995228;28;20038;-46
2023/08/08 03:15:35;;;;;;;4.55;0.70;;;;;;;;;;4991986;28;20400;-47
2023/08/08 03:18:01;;;;;;;1.55;0.77;;;;;;;;;;4995838;28;20543;-46
2023/08/08 03:20:27;;;;;;;2.83;0.73;;;;;;;;;;4994765;28;20038;-47
2023/08/08 03:22:52;;;;;;;4.80;0.65;;;;;;;;;;4995363;28;20504;-46
2023/08/08 03:25:18;;;;;;;0.63;0.63;;;;;;;;;;4995026;28;20030;-48
2023/08/08 03:27:43;;;;;;;2.03;0.70;;;;;;;;;;4995498;28;20061;-45
2023/08/08 03:30:09;;;;;;;0.60;0.60;;;;;;;;;;4994518;28;20033;-45
2023/08/08 03:32:35;;;;;;;1.70;0.77;;;;;;;;;;4987329;28;20409;-49
2023/08/08 03:35:00;;;;;;;1.35;0.93;;;;;;;;;;4992465;28;20567;-45
2023/08/08 03:37:25;;;;;;;0.90;0.90;;;;;;;;;;4985788;28;20500;-46
2023/08/08 03:39:51;;;;;;;1.35;0.75;;;;;;;;;;4994223;28;20069;-46
2023/08/08 03:42:16;;;;;;;3.22;0.60;;;;;;;;;;4993990;28;20030;-49
2023/08/08 03:44:42;;;;;;;0.70;0.70;;;;;;;;;;4994514;28;20030;-47
2023/08/08 03:47:07;;;;;;;1.10;0.90;;;;;;;;;;4995072;28;20034;-47
2023/08/08 03:49:33;;;;;;;1.73;1.08;;;;;;;;;;4992458;28;20058;-48
2023/08/08 03:51:58;;;;;;;2.53;1.00;;;;;;;;;;4994673;28;20045;-49
2023/08/08 03:54:24;;;;;;;1.90;0.80;;;;;;;;;;4995349;28;20040;-45
2023/08/08 03:56:49;;;;;;;2.60;0.80;;;;;;;;;;4993499;28;20433;-47
2023/08/08 03:59:15;;;;;;;1.70;0.60;;;;;;;;;;4992005;28;20491;-48
2023/08/08 04:01:40;;;;;;;1.05;1.02;;;;;;;;;;4994612;28;20472;-46
2023/08/08 04:04:05;;;;;;;2.80;1.08;;;;;;;;;;4975572;28;20045;-46
2023/08/08 04:06:31;;;;;;;1.73;0.80;;;;;;;;;;4989654;28;20022;-44
2023/08/08 04:08:56;;;;;;;3.03;0.63;;;;;;;;;;4994283;28;20042;-45
2023/08/08 04:11:22;;;;;;;0.65;0.65;;;;;;;;;;4989635;28;20030;-47
2023/08/08 04:13:47;;;;;;;2.08;0.95;;;;;;;;;;4983097;28;20062;-44
2023/08/08 04:16:13;;;;;;;0.77;0.73;;;;;;;;;;4996130;28;20081;-45
2023/08/08 04:18:39;;;;;;;4.65;0.90;;;;;;;;;;4998200;28;20508;-45
2023/08/08 04:21:04;;;;;;;2.25;0.80;;;;;;;;;;4998127;28;20112;-46
2023/08/08 04:23:30;;;;;;;4.32;0.90;;;;;;;;;;4997952;28;20062;-45
2023/08/08 04:25:55;;;;;;;1.67;0.63;;;;;;;;;;4997753;28;20038;-45
2023/08/08 04:28:21;;;;;;;0.80;0.80;;;;;;;;;;4997363;28;20082;-44
2023/08/08 04:30:46;;;;;;;3.90;0.90;;;;;;;;;;4987378;28;20118;-47
2023/08/08 04:33:12;;;;;;;3.92;0.90;;;;;;;;;;4994864;28;20173;-45
2023/08/08 04:35:37;;;;;;;1.08;0.70;;;;;;;;;;4998035;28;20050;-46
2023/08/08 04:38:03;;;;;;;5.07;0.70;;;;;;;;;;4998368;28;20073;-48
2023/08/08 04:40:28;;;;;;;1.35;0.77;;;;;;;;;;4996652;28;20038;-45
2023/08/08 04:42:54;;;;;;;1.58;0.70;;;;;;;;;;4998620;28;20416;-45
2023/08/08 04:45:20;;;;;;;0.90;0.90;;;;;;;;;;4999200;28;20023;-45
2023/08/08 04:47:46;;;;;;;2.45;0.90;;;;;;;;;;4995570;28;20042;-45
2023/08/08 04:50:12;;;;;;;1.05;1.00;;;;;;;;;;4996012;28;20034;-44
2023/08/08 04:52:37;;;;;;;0.93;0.93;;;;;;;;;;4995921;28;20052;-44
2023/08/08 04:55:03;;;;;;;1.48;1.00;;;;;;;;;;4999214;28;20042;-46
2023/08/08 04:57:28;;;;;;;1.30;0.98;;;;;;;;;;4997226;28;20074;-44
2023/08/08 04:59:54;;;;;;;1.20;0.90;;;;;;;;;;4996666;28;20049;-46
2023/08/08 05:02:19;;;;;;;4.70;1.05;;;;;;;;;;4981684;28;20390;-45
2023/08/08 05:04:44;;;;;;;1.10;1.00;;;;;;;;;;4996834;28;20384;-44
2023/08/08 05:07:10;;;;;;;2.47;1.20;;;;;;;;;;4998660;28;20030;-45
2023/08/08 05:09:35;;;;;;;5.43;1.33;;;;;;;;;;4995638;28;20042;-45
2023/08/08 05:12:01;;;;;;;3.92;1.30;;;;;;;;;;4997502;28;20026;-48
2023/08/08 05:14:26;;;;;;;3.10;1.00;;;;;;;;;;4996736;28;20522;-47
2023/08/08 05:16:52;;;;;;;1.60;1.08;;;;;;;;;;4997164;28;20052;-46
2023/08/08 05:19:17;;;;;;;2.03;1.05;;;;;;;;;;4997918;28;20128;-45
2023/08/08 05:21:42;;;;;;;0.80;0.80;;;;;;;;;;4996524;28;20030;-47
2023/08/08 05:24:08;;;;;;;0.85;0.80;;;;;;;;;;4997364;28;20385;-46
2023/08/08 05:26:33;;;;;;;1.65;1.08;;;;;;;;;;4996293;28;20030;-45
2023/08/08 05:28:59;;;;;;;3.13;1.02;;;;;;;;;;4997657;28;20068;-46
2023/08/08 05:31:24;;;;;;;3.08;0.90;;;;;;;;;;4996468;28;20173;-46
2023/08/08 05:33:49;;;;;;;4.15;1.17;;;;;;;;;;4987042;28;20122;-48
2023/08/08 05:36:15;;;;;;;2.85;1.63;;;;;;;;;;4997526;28;20050;-45
2023/08/08 05:38:43;;;;;;;5.47;1.23;;;;;;;;;;4994939;28;20480;-48
2023/08/08 05:41:08;;;;;;;3.50;1.30;;;;;;;;;;4980887;28;20057;-46
2023/08/08 05:43:34;;;;;;;8.10;1.40;;;;;;;;;;4995593;28;20412;-45
2023/08/08 05:45:59;;;;;;;4.40;1.10;;;;;;;;;;4996577;28;20085;-44
2023/08/08 05:48:25;;;;;;;1.27;0.82;;;;;;;;;;4996216;28;20042;-46
2023/08/08 05:50:50;;;;;;;5.70;1.25;;;;;;;;;;4997268;28;20554;-47
2023/08/08 05:53:16;;;;;;;3.28;0.90;;;;;;;;;;4989272;28;20514;-46
2023/08/08 05:55:42;;;;;;;2.88;1.33;;;;;;;;;;4966831;28;20074;-45
2023/08/08 05:58:08;;;;;;;1.73;0.75;;;;;;;;;;4984612;28;20819;-45
2023/08/08 06:00:34;;;;;;;3.08;1.15;;;;;;;;;;4996499;28;20367;-44
2023/08/08 06:02:59;;;;;;;3.08;0.93;;;;;;;;;;4997538;28;20566;-45
2023/08/08 06:05:24;;;;;;;3.10;0.80;;;;;;;;;;4997380;28;20038;-45
2023/08/08 06:07:50;;;;;;;1.17;0.90;;;;;;;;;;4994822;28;20042;-46
2023/08/08 06:10:16;;;;;;;0.95;0.88;;;;;;;;;;4996361;28;20392;-44
2023/08/08 06:12:41;;;;;;;2.88;0.93;;;;;;;;;;4986044;28;20045;-46
2023/08/08 06:15:07;;;;;;;4.57;0.93;;;;;;;;;;4994568;28;20480;-46
2023/08/08 06:17:32;;;;;;;1.88;1.00;;;;;;;;;;5008570;28;20034;-46
2023/08/08 06:19:58;;;;;;;1.88;1.08;;;;;;;;;;4995720;28;20026;-45
2023/08/08 06:22:23;;;;;;;1.40;0.95;;;;;;;;;;4991121;28;20443;-47
2023/08/08 06:24:49;;;;;;;2.78;0.85;;;;;;;;;;4992348;28;20054;-46
2023/08/08 06:27:15;;;;;;;0.73;0.73;;;;;;;;;;4994657;28;20042;-46
2023/08/08 06:29:40;;;;;;;4.05;1.20;;;;;;;;;;4994620;28;20124;-46
2023/08/08 06:32:06;;;;;;;2.78;1.20;;;;;;;;;;4989029;28;20054;-48
2023/08/08 06:34:31;;;;;;;1.70;0.73;;;;;;;;;;4990283;28;20072;-49
2023/08/08 06:36:57;;;;;;;1.55;0.82;;;;;;;;;;4984506;28;20050;-45
2023/08/08 06:39:23;;;;;;;1.33;0.73;;;;;;;;;;4985523;28;20819;-45
2023/08/08 06:41:48;;;;;;;1.63;1.10;;;;;;;;;;4977934;28;20053;-48
2023/08/08 06:44:14;;;;;;;12.25;1.40;;;;;;;;;;4975161;28;20042;-48
2023/08/08 06:46:39;;;;;;;10.40;1.40;;;;;;;;;;4983877;28;20109;-48
2023/08/08 06:49:06;;;;;;;7.05;1.20;;;;;;;;;;4976096;28;20524;-45
2023/08/08 06:51:32;;;;;;;2.47;0.98;;;;;;;;;;4968018;28;20483;-50
2023/08/08 06:53:57;;;;;;;11.00;1.02;;;;;;;;;;4984986;28;20034;-46
2023/08/08 06:56:23;;;;;;;1.45;0.80;;;;;;;;;;4985554;28;20026;-47
2023/08/08 06:58:48;;;;;;;1.23;1.00;;;;;;;;;;4984186;28;20100;-46
2023/08/08 07:01:14;;;;;;;1.90;1.05;;;;;;;;;;4981232;28;20046;-49
2023/08/08 07:03:40;;;;;;;4.78;1.00;;;;;;;;;;4976754;28;20390;-46
2023/08/08 07:06:06;;;;;;;1.55;1.00;;;;;;;;;;4977858;28;20147;-46
2023/08/08 07:08:32;;;;;;;1.00;0.90;;;;;;;;;;4979638;28;20046;-46
2023/08/08 07:10:58;;;;;;;2.15;0.90;;;;;;;;;;4980704;28;20030;-48
2023/08/08 07:13:24;;;;;;;1.90;1.20;;;;;;;;;;4979425;28;20067;-48
2023/08/08 07:15:49;;;;;;;2.30;0.80;;;;;;;;;;4984342;28;20381;-45
2023/08/08 07:18:15;;;;;;;5.40;0.95;;;;;;;;;;4983940;28;20042;-45
2023/08/08 07:20:40;;;;;;;1.13;1.00;;;;;;;;;;4989317;28;20049;-45
2023/08/08 07:23:06;;;;;;;1.52;1.10;;;;;;;;;;4982591;28;20588;-46
2023/08/08 07:25:31;;;;;;;11.32;1.27;;;;;;;;;;4993941;28;20030;-45
2023/08/08 07:27:57;;;;;;;4.00;1.10;;;;;;;;;;4980313;28;20039;-48
2023/08/08 07:30:22;;;;;;;1.58;1.00;;;;;;;;;;4984136;28;20045;-47
2023/08/08 07:32:48;;;;;;;1.08;0.75;;;;;;;;;;4985008;28;20047;-48
2023/08/08 07:35:15;;;;;;;1.73;0.90;;;;;;;;;;4989365;28;20082;-46
2023/08/08 07:37:40;;;;;;;11.32;1.23;;;;;;;;;;4976963;28;20074;-46
2023/08/08 07:40:19;;;;;;;4.18;1.33;;;;;;;;;;4994381;28;20039;-44
2023/08/08 07:42:46;;;;;;;4.55;1.30;;;;;;;;;;4983506;28;20041;-44
2023/08/08 07:45:11;;;;;;;3.78;1.05;;;;;;;;;;4989081;28;20026;-47
2023/08/08 07:47:36;;;;;;;2.40;1.30;;;;;;;;;;4991740;28;20455;-44
2023/08/08 07:50:02;;;;;;;8.27;1.20;;;;;;;;;;4981286;28;20423;-44
2023/08/08 07:52:28;;;;;;;3.17;1.02;;;;;;;;;;4984131;28;20038;-47
2023/08/08 07:54:53;;;;;;;1.85;1.00;;;;;;;;;;4983659;28;20401;-46
2023/08/08 07:57:18;;;;;;;1.60;0.80;;;;;;;;;;4988365;28;20027;-45
2023/08/08 07:59:44;;;;;;;8.98;1.27;;;;;;;;;;4995238;28;20038;-44
2023/08/08 08:02:09;;;;;;;19.02;1.83;;;;;;;;;;4988124;28;20037;-43
2023/08/08 08:04:35;;;;;;;12.52;1.77;;;;;;;;;;4989025;28;20026;-47
2023/08/08 08:07:00;;;;;;;5.43;1.52;;;;;;;;;;4997289;28;20064;-45
2023/08/08 08:09:26;;;;;;;2.40;0.98;;;;;;;;;;4995334;28;20452;-49
2023/08/08 08:11:52;;;;;;;3.53;0.98;;;;;;;;;;4989070;28;20026;-45
2023/08/08 08:14:17;;;;;;;5.78;1.23;;;;;;;;;;4969273;28;20122;-46
2023/08/08 08:16:44;;;;;;;6.00;1.10;;;;;;;;;;4992641;28;20050;-45
2023/08/08 08:19:10;;;;;;;9.35;1.20;;;;;;;;;;4981196;28;20154;-46
2023/08/08 08:21:35;;;;;;;8.40;1.20;;;;;;;;;;4987763;28;20054;-46
2023/08/08 08:24:01;;;;;;;2.33;1.10;;;;;;;;;;4987715;28;20607;-46
2023/08/08 08:26:27;;;;;;;4.55;1.20;;;;;;;;;;4992147;28;20062;-47
2023/08/08 08:28:53;;;;;;;5.72;1.10;;;;;;;;;;4980618;28;20065;-45
2023/08/08 08:31:18;;;;;;;2.45;1.30;;;;;;;;;;5008619;28;20027;-46
2023/08/08 08:33:44;;;;;;;2.80;1.35;;;;;;;;;;5004008;28;20047;-45
2023/08/08 08:36:09;;;;;;;5.80;1.40;;;;;;;;;;4984886;28;20474;-46
2023/08/08 08:38:34;;;;;;;1.65;1.23;;;;;;;;;;4984585;28;20496;-45
2023/08/08 08:41:02;;;;;;;3.80;1.33;;;;;;;;;;4982580;28;20026;-45
2023/08/08 08:43:28;;;;;;;1.27;1.20;;;;;;;;;;4966386;28;20046;-44
2023/08/08 08:45:54;;;;;;;3.45;1.25;;;;;;;;;;4964696;28;20031;-44
2023/08/08 08:48:21;;;;;;;6.45;1.30;;;;;;;;;;4974447;28;20039;-45
2023/08/08 08:50:48;;;;;;;3.72;1.00;;;;;;;;;;4993143;28;20040;-45
2023/08/08 08:53:15;;;;;;;5.20;1.17;;;;;;;;;;4985423;28;20031;-46
2023/08/08 08:55:41;;;;;;;6.47;0.90;;;;;;;;;;4980840;28;20030;-46
2023/08/08 08:58:07;;;;;;;3.95;1.08;;;;;;;;;;4978892;28;20054;-45
2023/08/08 09:00:33;;;;;;;1.15;1.02;;;;;;;;;;4993511;28;20038;-46
2023/08/08 09:02:59;;;;;;;6.68;1.10;;;;;;;;;;4992427;28;20049;-46
2023/08/08 09:05:26;;;;;;;4.32;1.10;;;;;;;;;;4981849;28;20499;-45
2023/08/08 09:07:51;;;;;;;1.55;1.20;;;;;;;;;;4980594;28;20566;-49
2023/08/08 09:10:18;;;;;;;6.40;1.05;;;;;;;;;;4986730;28;20027;-46
2023/08/08 09:12:44;;;;;;;3.03;1.00;;;;;;;;;;4983888;28;20042;-50
2023/08/08 09:15:10;;;;;;;1.73;1.10;;;;;;;;;;4982651;28;20037;-48
2023/08/08 09:17:36;;;;;;;2.15;1.00;;;;;;;;;;4990061;28;20042;-48
2023/08/08 09:20:03;;;;;;;2.95;0.90;;;;;;;;;;4978798;28;20122;-46
2023/08/08 09:22:29;;;;;;;3.13;1.08;;;;;;;;;;4989801;28;20042;-48
2023/08/08 09:24:55;;;;;;;7.68;1.35;;;;;;;;;;4994063;28;20038;-45
2023/08/08 09:27:20;;;;;;;2.95;1.23;;;;;;;;;;4974998;28;20026;-45
2023/08/08 09:29:46;;;;;;;2.50;1.05;;;;;;;;;;4981085;28;20074;-45
2023/08/08 09:32:13;;;;;;;3.67;1.15;;;;;;;;;;4985274;28;20085;-46
2023/08/08 09:34:44;;;;;;;1.20;1.10;;;;;;;;;;4992695;28;20524;-46
2023/08/08 09:37:10;;;;;;;4.30;1.20;;;;;;;;;;4985144;28;20050;-47
2023/08/08 09:39:36;;;;;;;9.93;1.30;;;;;;;;;;4984205;28;20022;-47
2023/08/08 09:42:03;;;;;;;1.83;1.20;;;;;;;;;;4986253;28;20573;-47
2023/08/08 09:44:29;;;;;;;2.80;1.20;;;;;;;;;;4994584;28;20046;-46
2023/08/08 09:46:56;;;;;;;2.30;1.10;;;;;;;;;;4986822;28;20535;-47
2023/08/08 09:49:22;;;;;;;3.97;1.27;;;;;;;;;;4982680;28;20130;-46
2023/08/08 09:51:51;;;;;;;1.80;1.00;;;;;;;;;;4987999;28;20468;-47
2023/08/08 09:54:17;;;;;;;6.10;1.17;;;;;;;;;;4989101;28;20518;-46
2023/08/08 09:56:42;;;;;;;3.45;1.13;;;;;;;;;;4989912;28;20026;-46
2023/08/08 09:59:09;;;;;;;4.30;1.00;;;;;;;;;;4991556;28;20042;-45
2023/08/08 10:01:34;;;;;;;3.90;1.27;;;;;;;;;;4981143;28;20022;-46
2023/08/08 10:04:01;;;;;;;1.25;1.02;;;;;;;;;;4988416;28;20088;-49
2023/08/08 10:06:27;;;;;;;2.10;1.25;;;;;;;;;;4985511;28;20089;-47
2023/08/08 10:08:53;;;;;;;1.15;1.00;;;;;;;;;;4980289;28;20047;-47
2023/08/08 10:11:22;;;;;;;0.85;0.85;;;;;;;;;;4976656;28;20026;-47
2023/08/08 10:13:49;;;;;;;0.98;0.95;;;;;;;;;;4991883;28;20791;-47
2023/08/08 10:16:17;;;;;;;1.27;0.98;;;;;;;;;;4982679;28;20022;-47
2023/08/08 10:18:42;;;;;;;0.90;0.90;;;;;;;;;;4959413;28;20048;-46
2023/08/08 10:21:10;;;;;;;0.90;0.82;;;;;;;;;;4989530;28;20027;-46
2023/08/08 10:23:37;;;;;;;1.30;1.20;;;;;;;;;;4979257;28;20051;-45
2023/08/08 10:26:03;;;;;;;6.57;1.00;;;;;;;;;;4981724;28;20612;-51
2023/08/08 10:28:29;;;;;;;3.17;1.20;;;;;;;;;;4992868;28;20108;-47
2023/08/08 10:30:59;;;;;;;8.38;1.20;;;;;;;;;;4983685;28;20062;-46
2023/08/08 10:33:27;;;;;;;1.30;0.95;;;;;;;;;;4989661;28;20042;-48
2023/08/08 10:35:58;;;;;;;5.18;0.95;;;;;;;;;;4983579;28;20065;-46
2023/08/08 10:38:25;;;;;;;2.28;1.00;;;;;;;;;;4993182;28;20093;-47
2023/08/08 10:40:59;;;;;;;2.45;1.00;;;;;;;;;;4986749;28;20031;-48
2023/08/08 10:43:29;;;;;;;1.33;0.95;;;;;;;;;;4996469;28;20048;-46
2023/08/08 10:46:03;;;;;;;1.38;1.13;;;;;;;;;;4982960;28;20036;-45
2023/08/08 10:48:29;;;;;;;2.25;0.88;;;;;;;;;;4996177;28;20038;-47
2023/08/08 10:50:58;;;;;;;1.25;1.00;;;;;;;;;;4980022;28;20080;-46
2023/08/08 10:53:28;;;;;;;1.67;0.90;;;;;;;;;;4992803;28;20057;-46
2023/08/08 10:56:00;;;;;;;3.60;1.20;;;;;;;;;;4982622;28;20069;-45
2023/08/08 10:58:38;;;;;;;2.92;0.88;;;;;;;;;;4981916;28;20050;-46
2023/08/08 11:01:08;;;;;;;4.10;1.00;;;;;;;;;;4987809;28;20030;-48
2023/08/08 11:03:39;;;;;;;1.20;1.20;;;;;;;;;;4976893;28;20038;-48
2023/08/08 11:06:06;;;;;;;4.05;1.10;;;;;;;;;;4986185;28;20045;-49
2023/08/08 11:08:32;;;;;;;1.85;1.10;;;;;;;;;;4994427;28;20050;-46
2023/08/08 11:10:58;;;;;;;5.75;1.10;;;;;;;;;;4993698;28;20093;-47
2023/08/08 11:13:23;;;;;;;2.70;1.13;;;;;;;;;;4994170;28;20053;-46
2023/08/08 11:15:49;;;;;;;3.25;1.27;;;;;;;;;;4993413;28;20080;-47
2023/08/08 11:18:14;;;;;;;1.25;0.90;;;;;;;;;;4983368;28;20046;-48
2023/08/08 11:20:40;;;;;;;3.10;1.08;;;;;;;;;;4994484;28;20539;-48
2023/08/08 11:23:09;;;;;;;2.75;1.10;;;;;;;;;;4995623;28;20092;-48
2023/08/08 11:25:36;;;;;;;2.85;1.20;;;;;;;;;;4997239;28;20527;-46
2023/08/08 11:28:01;;;;;;;1.08;0.80;;;;;;;;;;4999438;28;20049;-45
2023/08/08 11:30:33;;;;;;;2.10;1.10;;;;;;;;;;4990706;28;20034;-46
2023/08/08 11:32:59;;;;;;;1.17;1.00;;;;;;;;;;4999030;28;20123;-46
2023/08/08 11:35:27;;;;;;;1.42;1.13;;;;;;;;;;4998101;28;20100;-49
2023/08/08 11:37:54;;;;;;;1.77;1.40;;;;;;;;;;4999263;28;20407;-47
2023/08/08 11:40:22;;;;;;;2.42;1.08;;;;;;;;;;4998091;28;20038;-45
2023/08/08 11:42:50;;;;;;;3.35;1.10;;;;;;;;;;4998527;28;20104;-45
2023/08/08 11:45:16;;;;;;;6.50;1.13;;;;;;;;;;4993055;28;20054;-46
2023/08/08 11:47:41;;;;;;;2.05;1.15;;;;;;;;;;4988768;28;20487;-48
2023/08/08 11:50:09;;;;;;;1.08;0.98;;;;;;;;;;4999784;28;20030;-47
2023/08/08 11:52:39;;;;;;;5.20;1.48;;;;;;;;;;4998296;28;20043;-47
2023/08/08 11:55:06;;;;;;;2.15;0.95;;;;;;;;;;4998785;28;20612;-46
2023/08/08 11:57:35;;;;;;;6.35;1.17;;;;;;;;;;4982990;28;20129;-46
2023/08/08 12:00:01;;;;;;;3.80;1.10;;;;;;;;;;4980082;28;20038;-45
2023/08/08 12:02:27;;;;;;;3.40;1.13;;;;;;;;;;4968107;28;20527;-45
2023/08/08 12:04:53;;;;;;;1.70;1.38;;;;;;;;;;4998243;28;20062;-46
2023/08/08 12:07:19;;;;;;;3.42;1.00;;;;;;;;;;4997760;28;20030;-48
2023/08/08 12:09:47;;;;;;;0.90;0.90;;;;;;;;;;4997495;28;20026;-46
2023/08/08 12:12:13;;;;;;;1.25;0.80;;;;;;;;;;4998255;28;20034;-47
2023/08/08 12:14:41;;;;;;;4.05;1.10;;;;;;;;;;4990735;28;20027;-46
2023/08/08 12:17:06;;;;;;;5.45;1.20;;;;;;;;;;4990219;28;20106;-45
2023/08/08 12:19:32;;;;;;;3.20;0.90;;;;;;;;;;4985722;28;20055;-49
2023/08/08 12:21:57;;;;;;;1.25;0.98;;;;;;;;;;4972921;28;20030;-48
2023/08/08 12:24:23;;;;;;;0.90;0.90;;;;;;;;;;4991443;28;20120;-48
2023/08/08 12:26:48;;;;;;;4.80;1.30;;;;;;;;;;4998276;28;20029;-46
2023/08/08 12:29:14;;;;;;;2.55;0.95;;;;;;;;;;4992756;28;20445;-49
2023/08/08 12:31:39;;;;;;;2.63;0.90;;;;;;;;;;4993170;28;20037;-47
2023/08/08 12:34:05;;;;;;;3.03;1.02;;;;;;;;;;4998452;28;20046;-49
2023/08/08 12:36:31;;;;;;;2.08;1.10;;;;;;;;;;4997462;28;20053;-50
2023/08/08 12:38:56;;;;;;;1.25;1.15;;;;;;;;;;4984492;28;20038;-46
2023/08/08 12:41:23;;;;;;;3.50;1.08;;;;;;;;;;4983994;28;20026;-48
2023/08/08 12:43:49;;;;;;;1.73;1.15;;;;;;;;;;4996702;28;20049;-46
2023/08/08 12:46:15;;;;;;;3.33;1.00;;;;;;;;;;4999262;28;20391;-46
2023/08/08 12:48:40;;;;;;;1.20;1.10;;;;;;;;;;4996271;28;20117;-50
2023/08/08 12:51:07;;;;;;;1.30;1.20;;;;;;;;;;4996994;28;20034;-47
2023/08/08 12:53:34;;;;;;;0.90;0.90;;;;;;;;;;4977822;28;20646;-48
2023/08/08 12:56:00;;;;;;;1.00;0.90;;;;;;;;;;4978577;28;20105;-45
2023/08/08 12:58:25;;;;;;;0.80;0.80;;;;;;;;;;4982621;28;20069;-49
2023/08/08 13:00:51;;;;;;;2.50;1.30;;;;;;;;;;4990011;28;21222;-46
2023/08/08 13:03:16;;;;;;;3.22;1.00;;;;;;;;;;4995774;28;20062;-48
2023/08/08 13:05:41;;;;;;;3.95;1.30;;;;;;;;;;4988920;28;20038;-46
2023/08/08 13:08:07;;;;;;;3.50;1.23;;;;;;;;;;4992174;28;20201;-46
2023/08/08 13:10:32;;;;;;;2.40;1.20;;;;;;;;;;4998579;28;20038;-47
2023/08/08 13:12:58;;;;;;;8.38;1.27;;;;;;;;;;4996430;28;20400;-45
2023/08/08 13:15:23;;;;;;;29.48;2.08;;;;;;;;;;4986535;28;20027;-47
2023/08/08 13:17:49;;;;;;;1.10;1.00;;;;;;;;;;4995888;28;20042;-46
2023/08/08 13:20:14;;;;;;;1.00;1.00;;;;;;;;;;4991075;28;20042;-46
2023/08/08 13:22:42;;;;;;;0.80;0.80;;;;;;;;;;4989607;28;20038;-46
2023/08/08 13:25:08;;;;;;;2.47;0.90;;;;;;;;;;4987799;28;20538;-48
2023/08/08 13:27:33;;;;;;;1.20;1.10;;;;;;;;;;4983026;28;20039;-48
2023/08/08 13:29:58;;;;;;;2.00;1.17;;;;;;;;;;4992597;28;20026;-46
2023/08/08 13:32:24;;;;;;;1.17;1.02;;;;;;;;;;4992369;28;20054;-46
2023/08/08 13:34:49;;;;;;;6.68;1.30;;;;;;;;;;4996644;28;20461;-47
2023/08/08 13:37:16;;;;;;;1.25;1.00;;;;;;;;;;4986487;28;20085;-46
2023/08/08 13:39:42;;;;;;;1.20;1.10;;;;;;;;;;4983959;28;20034;-47
2023/08/08 13:42:08;;;;;;;3.60;1.08;;;;;;;;;;4983833;28;20023;-46
2023/08/08 13:44:34;;;;;;;4.25;1.20;;;;;;;;;;4985168;28;20491;-47
2023/08/08 13:46:59;;;;;;;1.20;1.00;;;;;;;;;;4991811;28;20034;-48
2023/08/08 13:49:28;;;;;;;0.93;0.88;;;;;;;;;;4996704;28;20121;-46
2023/08/08 13:51:54;;;;;;;1.33;0.88;;;;;;;;;;4996049;28;20030;-46
2023/08/08 13:54:20;;;;;;;1.08;1.02;;;;;;;;;;4996767;28;20125;-45
2023/08/08 13:56:45;;;;;;;4.32;1.40;;;;;;;;;;4995471;28;20069;-48
2023/08/08 13:59:11;;;;;;;1.92;1.55;;;;;;;;;;4984158;28;20073;-45
2023/08/08 14:01:37;;;;;;;6.32;1.70;;;;;;;;;;4994337;28;20481;-50
2023/08/08 14:04:02;;;;;;;5.93;1.50;;;;;;;;;;4987827;28;20097;-50
2023/08/08 14:06:28;;;;;;;10.10;2.00;;;;;;;;;;4990713;28;20074;-48
2023/08/08 14:08:54;;;;;;;4.45;1.30;;;;;;;;;;4994998;28;20034;-47
2023/08/08 14:11:19;;;;;;;3.13;1.55;;;;;;;;;;4985723;28;20033;-47
2023/08/08 14:13:45;;;;;;;3.15;1.48;;;;;;;;;;4978912;28;20047;-45
2023/08/08 14:16:11;;;;;;;2.47;1.50;;;;;;;;;;4989221;28;20049;-47
2023/08/08 14:18:36;;;;;;;2.58;1.50;;;;;;;;;;4992414;28;20042;-47
2023/08/08 14:21:04;;;;;;;8.55;1.70;;;;;;;;;;4992857;28;20105;-49
2023/08/08 14:23:29;;;;;;;3.25;1.23;;;;;;;;;;4995075;28;20041;-48
2023/08/08 14:25:55;;;;;;;3.10;1.38;;;;;;;;;;4989033;28;20050;-47
2023/08/08 14:28:20;;;;;;;9.98;1.67;;;;;;;;;;4984988;28;20093;-53
2023/08/08 14:30:46;;;;;;;6.90;1.83;;;;;;;;;;4995524;28;20361;-46
2023/08/08 14:33:15;;;;;;;3.58;1.27;;;;;;;;;;4984120;28;20046;-47
2023/08/08 14:35:41;;;;;;;5.72;1.30;;;;;;;;;;4990443;28;20089;-49